Time;durP1;ratioP1;P1;durP2;ratioP2;P2;SDS_P1;SDS_P2;PMS_P1;PMS_P2;Temp;Humidity;BMP_temperature;BMP_pressure;BME280_temperature;BME280_humidity;BME280_pressure;Samples;Min_cycle;Max_cycle;Signal;HPM_P1;HPM_P2
2022/09/21 00:01:12;;;;;;;20.40;14.32;;;;;;;;;;5055006;28;20056;-62
2022/09/21 00:03:40;;;;;;;20.52;14.45;;;;;;;;;;5054761;28;20060;-61
2022/09/21 00:06:07;;;;;;;21.95;13.60;;;;;;;;;;5053423;28;20021;-57
2022/09/21 00:08:34;;;;;;;20.45;12.98;;;;;;;;;;5052693;28;20116;-59
2022/09/21 00:11:00;;;;;;;21.13;14.80;;;;;;;;;;5053949;28;20025;-60
2022/09/21 00:13:27;;;;;;;20.13;14.02;;;;;;;;;;5056437;28;20017;-59
2022/09/21 00:15:54;;;;;;;20.08;13.45;;;;;;;;;;5053191;28;20025;-61
2022/09/21 00:18:20;;;;;;;20.38;14.00;;;;;;;;;;5053117;28;20106;-55
2022/09/21 00:20:46;;;;;;;21.13;14.45;;;;;;;;;;5053222;28;20025;-59
2022/09/21 00:23:13;;;;;;;21.05;14.27;;;;;;;;;;5054220;28;20025;-63
2022/09/21 00:25:39;;;;;;;19.52;13.63;;;;;;;;;;5054184;28;20021;-60
2022/09/21 00:28:05;;;;;;;19.95;13.45;;;;;;;;;;5054638;28;20091;-58
2022/09/21 00:30:31;;;;;;;22.38;13.30;;;;;;;;;;5054124;28;20036;-61
2022/09/21 00:32:57;;;;;;;19.63;13.70;;;;;;;;;;5054891;28;20025;-60
2022/09/21 00:35:22;;;;;;;20.15;13.93;;;;;;;;;;5054066;28;20039;-60
2022/09/21 00:37:48;;;;;;;20.55;13.80;;;;;;;;;;5052914;28;20025;-58
2022/09/21 00:40:14;;;;;;;20.85;14.38;;;;;;;;;;5053965;28;20396;-63
2022/09/21 00:42:40;;;;;;;19.52;13.45;;;;;;;;;;5053776;28;20025;-59
2022/09/21 00:45:07;;;;;;;18.88;13.10;;;;;;;;;;5053784;28;20046;-59
2022/09/21 00:47:36;;;;;;;20.63;13.98;;;;;;;;;;5052993;28;20523;-59
2022/09/21 00:50:05;;;;;;;17.88;12.88;;;;;;;;;;5053662;28;20028;-61
2022/09/21 00:52:33;;;;;;;18.58;13.18;;;;;;;;;;5053680;28;20041;-60
2022/09/21 00:55:09;;;;;;;21.48;13.63;;;;;;;;;;5053629;28;20032;-57
2022/09/21 00:57:35;;;;;;;21.23;13.68;;;;;;;;;;5051617;28;20036;-58
2022/09/21 01:00:04;;;;;;;18.00;13.35;;;;;;;;;;5053660;28;20083;-60
2022/09/21 01:02:30;;;;;;;;;;;;;;;;;;5053796;28;20029;-58
2022/09/21 01:04:56;;;;;;;21.92;14.18;;;;;;;;;;5051946;28;20384;-58
2022/09/21 01:07:25;;;;;;;20.10;13.30;;;;;;;;;;5052635;28;20067;-57
2022/09/21 01:09:53;;;;;;;18.05;13.07;;;;;;;;;;5053328;28;20112;-60
2022/09/21 01:12:37;;;;;;;19.27;13.20;;;;;;;;;;5053236;28;20366;-58
2022/09/21 01:15:23;;;;;;;18.20;13.13;;;;;;;;;;5051984;28;20025;-60
2022/09/21 01:17:59;;;;;;;18.15;12.60;;;;;;;;;;5045137;28;20029;-59
2022/09/21 01:20:25;;;;;;;21.77;13.45;;;;;;;;;;5053030;28;20389;-55
2022/09/21 01:22:54;;;;;;;28.48;19.90;;;;;;;;;;5053286;28;20044;-62
2022/09/21 01:25:35;;;;;;;21.25;13.63;;;;;;;;;;5052976;28;20025;-58
2022/09/21 01:28:13;;;;;;;19.25;13.30;;;;;;;;;;5051776;28;20115;-59
2022/09/21 01:30:41;;;;;;;18.55;13.20;;;;;;;;;;5052668;28;20036;-61
2022/09/21 01:33:28;;;;;;;19.52;12.85;;;;;;;;;;5052895;28;20036;-60
2022/09/21 01:35:56;;;;;;;20.48;13.80;;;;;;;;;;5052669;28;20033;-58
2022/09/21 01:38:48;;;;;;;18.90;13.07;;;;;;;;;;5052266;28;20028;-61
2022/09/21 01:41:15;;;;;;;19.05;13.20;;;;;;;;;;5050899;28;20033;-60
2022/09/21 01:43:43;;;;;;;18.90;12.98;;;;;;;;;;5053227;28;20117;-60
2022/09/21 01:46:12;;;;;;;20.40;14.10;;;;;;;;;;5053288;28;20020;-59
2022/09/21 01:48:38;;;;;;;;;;;;;;;;;;5052777;28;20509;-59
2022/09/21 01:51:07;;;;;;;20.17;12.43;;;;;;;;;;5053158;28;19905;-62
2022/09/21 01:53:35;;;;;;;19.63;13.20;;;;;;;;;;5052211;28;20025;-57
2022/09/21 01:56:06;;;;;;;20.45;13.38;;;;;;;;;;5052912;28;20063;-60
2022/09/21 01:58:41;;;;;;;21.25;14.52;;;;;;;;;;5054252;28;20508;-63
2022/09/21 02:01:08;;;;;;;20.35;13.70;;;;;;;;;;5055619;28;20025;-58
2022/09/21 02:03:36;;;;;;;20.08;13.20;;;;;;;;;;5053880;28;20029;-60
2022/09/21 02:06:04;;;;;;;19.83;14.07;;;;;;;;;;5052309;28;20033;-60
2022/09/21 02:08:31;;;;;;;19.90;14.15;;;;;;;;;;5051740;28;20586;-59
2022/09/21 02:10:58;;;;;;;19.55;13.60;;;;;;;;;;5052350;28;20056;-60
2022/09/21 02:13:26;;;;;;;20.02;14.07;;;;;;;;;;5051997;28;20025;-60
2022/09/21 02:15:52;;;;;;;17.50;13.00;;;;;;;;;;5052030;28;20025;-58
2022/09/21 02:18:21;;;;;;;20.10;13.60;;;;;;;;;;5051292;28;20275;-57
2022/09/21 02:20:50;;;;;;;19.60;13.38;;;;;;;;;;5051906;28;20029;-59
2022/09/21 02:23:16;;;;;;;;;;;;;;;;;;5051351;28;20013;-59
2022/09/21 02:25:41;;;;;;;19.65;13.35;;;;;;;;;;5052015;28;19912;-56
2022/09/21 02:28:11;;;;;;;21.92;14.02;;;;;;;;;;5051521;28;20021;-58
2022/09/21 02:30:38;;;;;;;20.40;13.75;;;;;;;;;;5052086;28;20032;-63
2022/09/21 02:33:25;;;;;;;19.55;13.70;;;;;;;;;;5052170;28;20025;-59
2022/09/21 02:35:54;;;;;;;19.55;13.68;;;;;;;;;;5051994;28;20547;-60
2022/09/21 02:38:32;;;;;;;22.20;15.10;;;;;;;;;;5051392;28;20108;-60
2022/09/21 02:41:02;;;;;;;19.27;14.00;;;;;;;;;;5053246;28;20435;-60
2022/09/21 02:43:44;;;;;;;20.30;14.30;;;;;;;;;;5058440;28;20032;-60
2022/09/21 02:46:13;;;;;;;18.23;14.00;;;;;;;;;;5056204;28;20078;-58
2022/09/21 02:48:45;;;;;;;20.10;14.05;;;;;;;;;;5055328;28;20104;-61
2022/09/21 02:51:16;;;;;;;21.95;14.43;;;;;;;;;;5055990;28;20075;-60
2022/09/21 02:53:42;;;;;;;20.85;14.70;;;;;;;;;;5055939;28;20056;-57
2022/09/21 02:56:11;;;;;;;20.75;14.52;;;;;;;;;;5055998;28;20509;-59
2022/09/21 02:58:37;;;;;;;;;;;;;;;;;;5055694;28;20110;-55
2022/09/21 03:01:06;;;;;;;20.20;14.60;;;;;;;;;;5055786;28;20575;-59
2022/09/21 03:03:32;;;;;;;22.20;14.75;;;;;;;;;;5055686;28;20482;-59
2022/09/21 03:05:59;;;;;;;21.60;14.85;;;;;;;;;;5055807;28;20120;-59
2022/09/21 03:08:25;;;;;;;21.05;14.30;;;;;;;;;;5054942;28;20033;-60
2022/09/21 03:10:51;;;;;;;20.55;15.60;;;;;;;;;;5054326;28;20124;-58
2022/09/21 03:13:17;;;;;;;21.88;15.02;;;;;;;;;;5055592;28;20029;-58
2022/09/21 03:15:44;;;;;;;23.00;15.90;;;;;;;;;;5055552;28;20074;-59
2022/09/21 03:18:10;;;;;;;24.13;15.43;;;;;;;;;;5053410;28;20025;-58
2022/09/21 03:20:37;;;;;;;23.85;15.52;;;;;;;;;;5055129;28;20028;-60
2022/09/21 03:23:03;;;;;;;21.23;15.60;;;;;;;;;;5055172;28;20032;-59
2022/09/21 03:25:29;;;;;;;22.08;15.55;;;;;;;;;;5055181;28;20474;-57
2022/09/21 03:27:56;;;;;;;24.50;15.63;;;;;;;;;;5054547;28;20111;-55
2022/09/21 03:30:23;;;;;;;19.75;14.65;;;;;;;;;;5055048;28;20025;-59
2022/09/21 03:32:49;;;;;;;19.88;15.05;;;;;;;;;;5055340;28;20035;-58
2022/09/21 03:35:15;;;;;;;19.10;14.20;;;;;;;;;;5053552;28;20025;-56
2022/09/21 03:37:41;;;;;;;18.92;14.10;;;;;;;;;;5054435;28;20017;-60
2022/09/21 03:40:07;;;;;;;23.13;14.88;;;;;;;;;;5054982;28;20110;-57
2022/09/21 03:42:34;;;;;;;20.45;13.27;;;;;;;;;;5055099;28;20385;-59
2022/09/21 03:45:01;;;;;;;18.42;13.73;;;;;;;;;;5053231;28;20017;-60
2022/09/21 03:47:28;;;;;;;18.80;13.60;;;;;;;;;;5054024;28;20025;-60
2022/09/21 03:49:54;;;;;;;21.58;14.93;;;;;;;;;;5054911;28;20433;-58
2022/09/21 03:52:20;;;;;;;20.38;14.52;;;;;;;;;;5054604;28;20477;-58
2022/09/21 03:54:46;;;;;;;19.05;14.30;;;;;;;;;;5054623;28;20056;-60
2022/09/21 03:57:12;;;;;;;18.13;14.00;;;;;;;;;;5054317;28;20032;-60
2022/09/21 03:59:38;;;;;;;22.17;14.50;;;;;;;;;;5054528;28;20037;-59
2022/09/21 04:02:04;;;;;;;19.42;14.73;;;;;;;;;;5054390;28;20041;-58
2022/09/21 04:04:30;;;;;;;19.58;15.88;;;;;;;;;;5054427;28;20020;-60
2022/09/21 04:06:56;;;;;;;20.70;15.57;;;;;;;;;;5054228;28;20038;-56
2022/09/21 04:09:22;;;;;;;19.90;15.05;;;;;;;;;;5053422;28;20067;-59
2022/09/21 04:11:48;;;;;;;20.83;14.55;;;;;;;;;;5053203;28;20431;-59
2022/09/21 04:14:14;;;;;;;19.30;14.95;;;;;;;;;;5054990;28;20100;-59
2022/09/21 04:16:40;;;;;;;19.83;15.20;;;;;;;;;;5054589;28;20055;-59
2022/09/21 04:19:06;;;;;;;20.50;15.18;;;;;;;;;;5052544;28;20028;-60
2022/09/21 04:21:32;;;;;;;20.60;15.02;;;;;;;;;;5052815;28;20086;-58
2022/09/21 04:24:00;;;;;;;19.38;15.05;;;;;;;;;;5054077;28;20416;-56
2022/09/21 04:26:27;;;;;;;19.08;15.05;;;;;;;;;;5054082;28;20458;-58
2022/09/21 04:28:54;;;;;;;22.52;16.17;;;;;;;;;;5053435;28;20060;-58
2022/09/21 04:31:20;;;;;;;20.38;15.27;;;;;;;;;;5052459;28;20151;-59
2022/09/21 04:33:50;;;;;;;21.92;16.88;;;;;;;;;;5054069;28;20095;-59
2022/09/21 04:36:17;;;;;;;19.95;15.23;;;;;;;;;;5053563;28;20025;-60
2022/09/21 04:38:43;;;;;;;22.27;16.30;;;;;;;;;;5052921;28;20025;-60
2022/09/21 04:41:09;;;;;;;22.63;16.60;;;;;;;;;;5053561;28;20034;-58
2022/09/21 04:43:35;;;;;;;22.25;16.35;;;;;;;;;;5053808;28;20017;-60
2022/09/21 04:46:08;;;;;;;25.63;16.67;;;;;;;;;;5053265;28;20040;-61
2022/09/21 04:48:34;;;;;;;30.00;18.80;;;;;;;;;;5033096;28;20104;-57
2022/09/21 04:51:00;;;;;;;25.42;17.80;;;;;;;;;;5033357;28;20037;-60
2022/09/21 04:53:26;;;;;;;32.35;17.73;;;;;;;;;;5033635;28;20030;-59
2022/09/21 04:55:53;;;;;;;30.40;18.67;;;;;;;;;;5033710;28;20036;-59
2022/09/21 04:58:19;;;;;;;26.13;18.25;;;;;;;;;;5032952;28;20105;-59
2022/09/21 05:00:49;;;;;;;27.20;19.15;;;;;;;;;;5033428;28;20406;-59
2022/09/21 05:03:15;;;;;;;25.08;18.15;;;;;;;;;;5032787;28;20036;-58
2022/09/21 05:05:45;;;;;;;27.40;18.40;;;;;;;;;;5033301;28;20477;-60
2022/09/21 05:08:11;;;;;;;24.23;19.05;;;;;;;;;;5031186;28;20022;-55
2022/09/21 05:10:37;;;;;;;25.88;18.98;;;;;;;;;;5033345;28;20031;-59
2022/09/21 05:13:03;;;;;;;31.15;20.10;;;;;;;;;;5033060;28;20109;-60
2022/09/21 05:15:29;;;;;;;23.02;18.92;;;;;;;;;;5033372;28;20022;-59
2022/09/21 05:17:55;;;;;;;27.52;19.83;;;;;;;;;;5032128;28;20048;-59
2022/09/21 05:20:21;;;;;;;23.00;18.25;;;;;;;;;;5034363;28;20018;-58
2022/09/21 05:22:47;;;;;;;33.42;20.83;;;;;;;;;;5053239;28;20025;-60
2022/09/21 05:25:13;;;;;;;27.92;19.55;;;;;;;;;;5053546;28;20036;-59
2022/09/21 05:27:39;;;;;;;27.08;20.30;;;;;;;;;;5052018;28;20070;-58
2022/09/21 05:30:06;;;;;;;32.95;22.90;;;;;;;;;;5052521;28;20541;-58
2022/09/21 05:32:35;;;;;;;26.00;19.77;;;;;;;;;;5052906;28;20024;-56
2022/09/21 05:35:00;;;;;;;26.52;19.63;;;;;;;;;;5052489;28;20039;-61
2022/09/21 05:37:26;;;;;;;53.90;21.30;;;;;;;;;;5051419;28;20021;-57
2022/09/21 05:39:53;;;;;;;37.65;21.50;;;;;;;;;;5053492;28;20158;-60
2022/09/21 05:42:19;;;;;;;44.63;24.60;;;;;;;;;;5054034;28;20021;-59
2022/09/21 05:44:48;;;;;;;41.00;25.40;;;;;;;;;;5054687;28;20033;-60
2022/09/21 05:47:16;;;;;;;38.90;23.73;;;;;;;;;;5052548;28;20382;-59
2022/09/21 05:49:42;;;;;;;;;;;;;;;;;;5052933;28;20028;-51
2022/09/21 05:52:34;;;;;;;35.38;22.58;;;;;;;;;;5052563;28;19905;-60
2022/09/21 05:55:24;;;;;;;31.48;22.63;;;;;;;;;;5036637;28;20033;-61
2022/09/21 05:57:49;;;;;;;29.80;20.98;;;;;;;;;;5052101;28;20021;-60
2022/09/21 06:00:18;;;;;;;30.10;20.65;;;;;;;;;;5052002;28;20040;-60
2022/09/21 06:02:46;;;;;;;26.42;19.20;;;;;;;;;;5051096;28;20025;-57
2022/09/21 06:05:14;;;;;;;30.27;18.98;;;;;;;;;;5051971;28;20048;-59
2022/09/21 06:07:43;;;;;;;34.10;22.17;;;;;;;;;;5051661;28;20036;-57
2022/09/21 06:10:10;;;;;;;32.45;20.08;;;;;;;;;;5051897;28;20025;-61
2022/09/21 06:12:36;;;;;;;31.17;19.15;;;;;;;;;;5052233;28;20086;-60
2022/09/21 06:15:01;;;;;;;32.35;20.73;;;;;;;;;;5051041;28;20033;-61
2022/09/21 06:17:27;;;;;;;44.72;22.48;;;;;;;;;;5051261;28;20129;-60
2022/09/21 06:19:54;;;;;;;37.90;20.52;;;;;;;;;;5051775;28;20021;-60
2022/09/21 06:22:20;;;;;;;37.17;20.42;;;;;;;;;;5051998;28;20017;-61
2022/09/21 06:24:46;;;;;;;36.70;21.20;;;;;;;;;;5052137;28;20100;-62
2022/09/21 06:27:12;;;;;;;39.45;21.50;;;;;;;;;;5051355;28;20032;-58
2022/09/21 06:29:38;;;;;;;40.28;25.52;;;;;;;;;;5051872;28;20029;-59
2022/09/21 06:32:04;;;;;;;44.13;22.60;;;;;;;;;;5052686;28;20478;-58
2022/09/21 06:34:30;;;;;;;40.55;22.38;;;;;;;;;;5050973;28;20442;-59
2022/09/21 06:36:56;;;;;;;43.80;22.33;;;;;;;;;;5051591;28;20128;-60
2022/09/21 06:39:23;;;;;;;38.67;22.88;;;;;;;;;;5051285;28;20396;-59
2022/09/21 06:41:48;;;;;;;41.60;23.00;;;;;;;;;;5052644;28;20090;-61
2022/09/21 06:44:14;;;;;;;36.92;21.52;;;;;;;;;;5052398;28;20021;-62
2022/09/21 06:46:41;;;;;;;39.42;22.38;;;;;;;;;;5052386;28;20055;-58
2022/09/21 06:49:07;;;;;;;43.67;21.73;;;;;;;;;;5051299;28;20025;-60
2022/09/21 06:51:33;;;;;;;39.28;21.15;;;;;;;;;;5052606;28;20362;-67
2022/09/21 06:54:00;;;;;;;39.30;22.70;;;;;;;;;;5050857;28;20024;-60
2022/09/21 06:56:26;;;;;;;40.05;21.55;;;;;;;;;;5050930;28;20052;-62
2022/09/21 06:58:52;;;;;;;40.33;23.45;;;;;;;;;;5049967;28;20025;-61
2022/09/21 07:01:19;;;;;;;35.70;21.27;;;;;;;;;;5052086;28;20036;-65
2022/09/21 07:03:48;;;;;;;33.47;20.60;;;;;;;;;;5052506;28;20040;-65
2022/09/21 07:06:14;;;;;;;32.97;21.08;;;;;;;;;;5052371;28;20033;-65
2022/09/21 07:08:41;;;;;;;33.97;21.63;;;;;;;;;;5051245;28;20051;-65
2022/09/21 07:11:07;;;;;;;31.20;22.30;;;;;;;;;;5051581;28;20539;-65
2022/09/21 07:13:34;;;;;;;34.33;22.33;;;;;;;;;;5052017;28;20413;-66
2022/09/21 07:16:04;;;;;;;27.92;21.23;;;;;;;;;;5051625;28;20371;-67
2022/09/21 07:18:29;;;;;;;33.25;21.80;;;;;;;;;;5050784;28;20017;-59
2022/09/21 07:20:55;;;;;;;43.90;22.13;;;;;;;;;;5051273;28;20093;-60
2022/09/21 07:23:21;;;;;;;29.70;20.33;;;;;;;;;;5051297;28;20020;-59
2022/09/21 07:25:52;;;;;;;29.88;20.35;;;;;;;;;;5051915;28;20029;-59
2022/09/21 07:28:18;;;;;;;29.95;19.40;;;;;;;;;;5054887;28;20033;-67
2022/09/21 07:30:44;;;;;;;28.67;19.23;;;;;;;;;;5055116;28;20507;-67
2022/09/21 07:33:10;;;;;;;26.02;18.95;;;;;;;;;;5055056;28;20120;-67
2022/09/21 07:35:36;;;;;;;30.83;20.42;;;;;;;;;;5054847;28;20033;-67
2022/09/21 07:38:03;;;;;;;33.67;19.10;;;;;;;;;;5054207;28;20473;-67
2022/09/21 07:40:30;;;;;;;30.67;19.20;;;;;;;;;;5053798;28;20079;-67
2022/09/21 07:43:01;;;;;;;28.52;18.65;;;;;;;;;;5054928;28;20021;-63
2022/09/21 07:45:27;;;;;;;24.88;17.38;;;;;;;;;;5054513;28;20039;-65
2022/09/21 07:47:54;;;;;;;22.48;16.85;;;;;;;;;;5053898;28;20476;-64
2022/09/21 07:50:21;;;;;;;24.60;16.65;;;;;;;;;;5053822;28;20035;-65
2022/09/21 07:52:47;;;;;;;23.45;16.13;;;;;;;;;;5054274;28;20032;-64
2022/09/21 07:55:13;;;;;;;22.35;17.60;;;;;;;;;;5054346;28;20024;-67
2022/09/21 08:00:24;;;;;;;25.85;17.38;;;;;;;;;;5054495;28;20035;-68
2022/09/21 08:02:50;;;;;;;23.63;15.95;;;;;;;;;;5052943;28;20477;-67
2022/09/21 08:05:16;;;;;;;28.73;16.20;;;;;;;;;;5053198;28;20029;-67
2022/09/21 08:07:42;;;;;;;22.02;16.17;;;;;;;;;;5051715;28;20124;-67
2022/09/21 08:10:09;;;;;;;27.27;15.85;;;;;;;;;;5051982;28;20017;-66
2022/09/21 08:12:35;;;;;;;24.05;16.13;;;;;;;;;;5054059;28;20044;-66
2022/09/21 08:15:01;;;;;;;24.42;15.70;;;;;;;;;;5052769;28;20450;-65
2022/09/21 08:17:27;;;;;;;25.83;15.95;;;;;;;;;;5051933;28;20025;-65
2022/09/21 08:19:53;;;;;;;21.40;15.73;;;;;;;;;;5054059;28;20064;-65
2022/09/21 08:22:23;;;;;;;21.33;16.02;;;;;;;;;;5053977;28;20489;-65
2022/09/21 08:24:51;;;;;;;26.35;17.23;;;;;;;;;;5053896;28;20112;-64
2022/09/21 08:27:18;;;;;;;22.17;16.43;;;;;;;;;;5052059;28;20028;-64
2022/09/21 08:29:45;;;;;;;23.88;16.02;;;;;;;;;;5053822;28;20296;-65
2022/09/21 08:32:11;;;;;;;22.67;16.02;;;;;;;;;;5054205;28;20021;-66
2022/09/21 08:34:37;;;;;;;24.92;16.20;;;;;;;;;;5053882;28;20393;-65
2022/09/21 08:37:03;;;;;;;26.42;16.80;;;;;;;;;;5053403;28;20029;-65
2022/09/21 08:39:29;;;;;;;21.17;16.08;;;;;;;;;;5051161;28;20013;-65
2022/09/21 08:41:58;;;;;;;21.65;15.98;;;;;;;;;;5052189;28;20035;-65
2022/09/21 08:44:37;;;;;;;21.75;16.63;;;;;;;;;;5053476;28;20017;-66
2022/09/21 08:47:22;;;;;;;24.58;17.20;;;;;;;;;;5053381;28;20025;-64
2022/09/21 08:49:53;;;;;;;22.77;17.08;;;;;;;;;;5053211;28;20028;-67
2022/09/21 08:52:21;;;;;;;24.42;18.25;;;;;;;;;;5053521;28;20388;-66
2022/09/21 08:54:58;;;;;;;21.70;16.83;;;;;;;;;;5053803;28;20021;-67
2022/09/21 08:57:28;;;;;;;23.45;15.90;;;;;;;;;;5053876;28;20574;-66
2022/09/21 08:59:54;;;;;;;23.48;15.88;;;;;;;;;;5053914;28;20020;-67
2022/09/21 09:02:27;;;;;;;26.77;16.45;;;;;;;;;;5053646;28;20036;-65
2022/09/21 09:05:11;;;;;;;22.88;16.52;;;;;;;;;;5053379;28;20029;-66
2022/09/21 09:07:56;;;;;;;22.98;16.38;;;;;;;;;;5053322;28;20100;-68
2022/09/21 09:10:25;;;;;;;23.17;16.33;;;;;;;;;;5053060;28;20437;-66
2022/09/21 09:12:51;;;;;;;23.35;16.50;;;;;;;;;;5053343;28;20087;-66
2022/09/21 09:15:17;;;;;;;23.42;15.52;;;;;;;;;;5051946;28;20473;-66
2022/09/21 09:17:49;;;;;;;22.27;16.00;;;;;;;;;;5052595;28;20024;-67
2022/09/21 09:20:18;;;;;;;23.40;16.33;;;;;;;;;;5052177;28;20028;-66
2022/09/21 09:23:02;;;;;;;23.52;15.07;;;;;;;;;;5053673;28;20136;-67
2022/09/21 09:25:31;;;;;;;25.27;15.25;;;;;;;;;;5053363;28;20020;-66
2022/09/21 09:28:00;;;;;;;28.27;16.05;;;;;;;;;;5052457;28;20044;-67
2022/09/21 09:30:30;;;;;;;24.90;16.30;;;;;;;;;;5053399;28;20089;-66
2022/09/21 09:33:06;;;;;;;21.63;15.38;;;;;;;;;;5053508;28;20025;-67
2022/09/21 09:35:35;;;;;;;23.63;15.30;;;;;;;;;;5053389;28;20040;-68
2022/09/21 09:38:19;;;;;;;21.13;14.68;;;;;;;;;;5052548;28;20091;-67
2022/09/21 09:40:51;;;;;;;19.25;14.60;;;;;;;;;;5054554;28;20025;-66
2022/09/21 09:43:30;;;;;;;21.20;15.30;;;;;;;;;;5052968;28;20025;-66
2022/09/21 09:46:15;;;;;;;23.90;15.38;;;;;;;;;;5053024;28;20029;-68
2022/09/21 09:48:49;;;;;;;21.88;15.55;;;;;;;;;;5051801;28;20087;-66
2022/09/21 09:51:15;;;;;;;21.77;14.95;;;;;;;;;;5052896;28;20021;-66
2022/09/21 09:53:41;;;;;;;20.83;14.95;;;;;;;;;;5053107;28;20032;-66
2022/09/21 09:56:09;;;;;;;21.45;14.80;;;;;;;;;;5053216;28;20029;-66
2022/09/21 09:58:38;;;;;;;23.15;14.88;;;;;;;;;;5051905;28;20051;-67
2022/09/21 10:01:04;;;;;;;;;;;;;;;;;;5052885;28;20029;-68
2022/09/21 10:03:30;;;;;;;20.77;14.77;;;;;;;;;;5053102;28;19905;-65
2022/09/21 10:05:56;;;;;;;23.38;16.67;;;;;;;;;;5051800;28;20112;-67
2022/09/21 10:08:25;;;;;;;20.42;14.20;;;;;;;;;;5052291;28;20024;-67
2022/09/21 10:10:51;;;;;;;21.00;14.38;;;;;;;;;;5053309;28;20033;-67
2022/09/21 10:13:31;;;;;;;21.92;14.50;;;;;;;;;;5053869;28;20029;-66
2022/09/21 10:15:58;;;;;;;19.35;13.70;;;;;;;;;;5051399;28;20032;-68
2022/09/21 10:18:43;;;;;;;20.80;13.77;;;;;;;;;;5052382;28;20117;-66
2022/09/21 10:21:16;;;;;;;19.85;13.45;;;;;;;;;;5069415;28;20024;-67
2022/09/21 10:23:45;;;;;;;18.75;11.65;;;;;;;;;;5073791;28;20362;-65
2022/09/21 10:26:13;;;;;;;19.02;12.70;;;;;;;;;;5072381;28;20024;-66
2022/09/21 10:28:54;;;;;;;18.70;13.57;;;;;;;;;;5071221;28;20082;-66
2022/09/21 10:31:22;;;;;;;19.30;12.75;;;;;;;;;;5073110;28;20060;-66
2022/09/21 10:34:05;;;;;;;18.30;11.90;;;;;;;;;;5073070;28;20021;-65
2022/09/21 10:36:33;;;;;;;20.73;12.65;;;;;;;;;;5071757;28;20166;-66
2022/09/21 10:39:29;;;;;;;18.50;13.02;;;;;;;;;;5072020;28;20020;-66
2022/09/21 10:41:55;;;;;;;18.35;12.60;;;;;;;;;;5063808;28;20253;-67
2022/09/21 10:44:23;;;;;;;23.70;12.80;;;;;;;;;;5072063;28;20025;-67
2022/09/21 10:46:50;;;;;;;17.03;12.47;;;;;;;;;;5068181;28;20021;-65
2022/09/21 10:49:20;;;;;;;19.33;12.10;;;;;;;;;;5052070;28;20037;-65
2022/09/21 10:51:47;;;;;;;18.58;11.70;;;;;;;;;;5064284;28;20074;-66
2022/09/21 10:54:18;;;;;;;18.17;12.73;;;;;;;;;;5071105;28;20032;-65
2022/09/21 10:56:53;;;;;;;19.67;12.50;;;;;;;;;;5071362;28;20025;-65
2022/09/21 10:59:19;;;;;;;17.00;12.38;;;;;;;;;;5072752;28;20043;-67
2022/09/21 11:01:46;;;;;;;16.25;11.77;;;;;;;;;;5074746;28;20024;-66
2022/09/21 11:04:16;;;;;;;18.35;11.52;;;;;;;;;;5076471;28;20016;-66
2022/09/21 11:06:47;;;;;;;16.65;11.55;;;;;;;;;;5075036;28;20024;-67
2022/09/21 11:09:16;;;;;;;17.50;12.30;;;;;;;;;;5075850;28;20024;-66
2022/09/21 11:11:42;;;;;;;17.05;12.50;;;;;;;;;;5076471;28;20052;-67
2022/09/21 11:14:27;;;;;;;23.02;12.60;;;;;;;;;;5076460;28;20024;-68
2022/09/21 11:16:59;;;;;;;18.08;13.20;;;;;;;;;;5075011;28;20527;-65
2022/09/21 11:19:39;;;;;;;17.40;12.52;;;;;;;;;;5075579;28;20031;-66
2022/09/21 11:22:08;;;;;;;16.88;11.82;;;;;;;;;;5076202;28;20013;-67
2022/09/21 11:25:01;;;;;;;16.27;12.60;;;;;;;;;;5074956;28;20085;-66
2022/09/21 11:27:30;;;;;;;16.92;12.90;;;;;;;;;;5053803;28;20169;-68
2022/09/21 11:29:56;;;;;;;16.05;12.57;;;;;;;;;;5075611;28;20028;-66
2022/09/21 11:32:26;;;;;;;18.63;12.82;;;;;;;;;;5075536;28;20150;-67
2022/09/21 11:34:55;;;;;;;19.63;13.13;;;;;;;;;;5075814;28;20040;-67
2022/09/21 11:37:21;;;;;;;16.95;13.27;;;;;;;;;;5074640;28;20036;-67
2022/09/21 11:39:58;;;;;;;16.70;12.35;;;;;;;;;;5073765;28;20032;-66
2022/09/21 11:42:43;;;;;;;17.52;12.50;;;;;;;;;;5062524;23;20053;-61
2022/09/21 11:45:27;;;;;;;19.88;12.77;;;;;;;;;;5054012;28;20504;-64
2022/09/21 11:48:01;;;;;;;16.42;11.70;;;;;;;;;;5053436;28;20025;-63
2022/09/21 11:50:27;;;;;;;17.92;11.68;;;;;;;;;;5054008;28;20032;-65
2022/09/21 11:52:53;;;;;;;16.65;12.00;;;;;;;;;;5054065;28;20070;-63
2022/09/21 11:55:29;;;;;;;17.63;12.30;;;;;;;;;;5053948;28;20017;-64
2022/09/21 11:57:55;;;;;;;16.83;11.75;;;;;;;;;;5053627;28;20024;-64
2022/09/21 12:00:21;;;;;;;20.27;14.07;;;;;;;;;;5052705;28;20412;-64
2022/09/21 12:02:53;;;;;;;17.70;11.85;;;;;;;;;;5053826;28;20282;-64
2022/09/21 12:05:19;;;;;;;15.10;11.27;;;;;;;;;;5053929;28;20207;-62
2022/09/21 12:07:56;;;;;;;17.52;11.40;;;;;;;;;;5054455;28;20021;-64
2022/09/21 12:10:31;;;;;;;16.65;11.35;;;;;;;;;;5054571;28;20013;-63
2022/09/21 12:13:18;;;;;;;17.33;11.82;;;;;;;;;;5054011;28;20024;-64
2022/09/21 12:16:10;;;;;;;18.15;12.00;;;;;;;;;;5047362;28;20029;-64
2022/09/21 12:18:42;;;;;;;16.60;11.50;;;;;;;;;;5052917;28;20393;-64
2022/09/21 12:21:17;;;;;;;17.70;12.63;;;;;;;;;;5053581;28;20120;-65
2022/09/21 12:23:50;;;;;;;18.75;12.32;;;;;;;;;;5053786;28;20025;-62
2022/09/21 12:26:19;;;;;;;18.45;12.73;;;;;;;;;;5052344;28;20025;-63
2022/09/21 12:28:47;;;;;;;20.15;13.15;;;;;;;;;;5053015;28;20032;-60
2022/09/21 12:31:22;;;;;;;16.20;12.20;;;;;;;;;;5052320;28;20030;-63
2022/09/21 12:33:55;;;;;;;18.02;12.23;;;;;;;;;;5053399;28;20040;-63
2022/09/21 12:36:26;;;;;;;18.45;12.57;;;;;;;;;;5053192;28;20144;-63
2022/09/21 12:39:02;;;;;;;20.13;13.07;;;;;;;;;;5048171;28;20393;-61
2022/09/21 12:41:47;;;;;;;17.75;11.75;;;;;;;;;;5036748;28;20022;-63
2022/09/21 12:44:32;;;;;;;17.88;12.18;;;;;;;;;;5043461;28;20025;-61
2022/09/21 12:47:09;;;;;;;18.60;13.30;;;;;;;;;;5043662;28;20481;-58
2022/09/21 12:49:44;;;;;;;17.17;11.40;;;;;;;;;;5054210;28;20025;-63
2022/09/21 12:52:14;;;;;;;18.77;12.80;;;;;;;;;;5046684;28;20033;-62
2022/09/21 12:54:40;;;;;;;20.02;13.50;;;;;;;;;;5044988;28;20025;-62
2022/09/21 12:57:07;;;;;;;17.25;12.00;;;;;;;;;;5048498;28;20017;-63
2022/09/21 12:59:47;;;;;;;16.45;12.95;;;;;;;;;;5042066;28;20027;-62
2022/09/21 13:02:13;;;;;;;17.60;12.30;;;;;;;;;;5041515;28;20017;-63
2022/09/21 13:04:45;;;;;;;20.05;12.35;;;;;;;;;;5041032;28;20021;-63
2022/09/21 13:07:23;;;;;;;15.82;12.52;;;;;;;;;;5042717;28;20024;-61
2022/09/21 13:09:50;;;;;;;18.38;12.85;;;;;;;;;;5040991;28;20029;-63
2022/09/21 13:12:21;;;;;;;17.85;13.13;;;;;;;;;;5044417;28;20079;-63
2022/09/21 13:14:49;;;;;;;16.20;12.73;;;;;;;;;;5037264;28;20119;-63
2022/09/21 13:17:21;;;;;;;18.67;14.13;;;;;;;;;;5031864;28;20025;-62
2022/09/21 13:19:55;;;;;;;18.98;15.45;;;;;;;;;;4691923;28;10000347;-62
2022/09/21 13:22:23;;;;;;;17.10;13.30;;;;;;;;;;5045100;28;20025;-62
2022/09/21 13:25:00;;;;;;;17.08;13.35;;;;;;;;;;5048842;28;20709;-62
2022/09/21 13:27:46;;;;;;;19.25;13.27;;;;;;;;;;5043773;28;20346;-61
2022/09/21 13:30:27;;;;;;;17.10;13.10;;;;;;;;;;5029568;28;20083;-62
2022/09/21 13:32:53;;;;;;;16.25;13.30;;;;;;;;;;5029276;28;20503;-62
2022/09/21 13:35:52;;;;;;;16.65;13.30;;;;;;;;;;5029036;28;20486;-62
2022/09/21 13:38:50;;;;;;;19.85;17.45;;;;;;;;;;5010938;28;20501;-63
2022/09/21 13:41:16;;;;;;;19.42;15.85;;;;;;;;;;4990681;28;20045;-62
2022/09/21 13:43:47;;;;;;;17.83;13.60;;;;;;;;;;5043911;28;20501;-63
2022/09/21 13:46:31;;;;;;;18.38;13.65;;;;;;;;;;5028717;28;20029;-62
2022/09/21 13:48:59;;;;;;;19.38;14.90;;;;;;;;;;5027884;28;20084;-62
2022/09/21 13:51:25;;;;;;;17.13;13.45;;;;;;;;;;5044164;28;20481;-63
2022/09/21 13:53:56;;;;;;;16.85;14.05;;;;;;;;;;5028618;28;20025;-60
2022/09/21 13:56:24;;;;;;;17.45;13.57;;;;;;;;;;5028433;28;20628;-63
2022/09/21 13:58:52;;;;;;;18.23;13.43;;;;;;;;;;5028040;28;20034;-63
2022/09/21 14:01:19;;;;;;;;;;;;;;;;;;5044080;28;20029;-62
2022/09/21 14:03:49;;;;;;;17.02;13.40;;;;;;;;;;5029095;28;19909;-62
2022/09/21 14:06:19;;;;;;;16.85;13.00;;;;;;;;;;5028254;28;20033;-65
2022/09/21 14:08:51;;;;;;;19.02;13.27;;;;;;;;;;5027674;28;20117;-63
2022/09/21 14:11:21;;;;;;;17.40;13.10;;;;;;;;;;5028294;28;20397;-63
2022/09/21 14:14:08;;;;;;;16.88;12.90;;;;;;;;;;5028681;28;20577;-58
2022/09/21 14:16:35;;;;;;;19.25;15.00;;;;;;;;;;4991095;28;20037;-64
2022/09/21 14:19:03;;;;;;;19.38;14.18;;;;;;;;;;5036293;28;20509;-63
2022/09/21 14:21:30;;;;;;;18.67;15.50;;;;;;;;;;5042175;28;20025;-64
2022/09/21 14:24:06;;;;;;;18.05;13.23;;;;;;;;;;5030315;28;20520;-63
2022/09/21 14:26:45;;;;;;;19.23;14.40;;;;;;;;;;5028229;28;20035;-63
2022/09/21 14:29:20;;;;;;;18.48;15.30;;;;;;;;;;5026524;28;20087;-64
2022/09/21 14:31:47;;;;;;;18.33;14.48;;;;;;;;;;5026641;28;20021;-63
2022/09/21 14:34:19;;;;;;;18.30;13.32;;;;;;;;;;5028484;28;20022;-63
2022/09/21 14:36:48;;;;;;;16.23;12.70;;;;;;;;;;5026394;28;20490;-63